Decoded Metar for PGSN (SAIPAN in MARIANA ISLANDS) (IATA:SPN) | Meteo·Mobile Aviation Weather
aviador You're here:

PGSN Decoded Metar

SAIPAN in MARIANA ISLANDS
Report Time2019-02-20 18:54:00
UTC Time2019-02-20 19:16:41
Flight Rules vfr VFR
Wind050° at 16 kt
W.Decomp.*RWY 06: 15.7 kt HW 3.3 kt LCW
RWY 07: 14.8 kt HW 6 kt LCW
W.Rank050° ranks 6
Current wind is above 050° avg. (10.1)
Visibility9999 m
Phenomena:N/A
Clouds:Few 023 Hf
Expected CloudBase > 1,200 ft AGL from Temp-Dew spread
CeilingNone
Temp24°C (ISA +9)
Dew Point21°C (83% RH)
AAT22.4°C
QNH1013 hPa
Density Alt1,634 ft
Elevation213 ft
Report Wrong Elevation
Raw Report
PGSN 201854Z 05016KT 10SM FEW023 24/21 A2990 RMK AO2 SLP148
T02440211 PNO $=

Extra information for PGSN:More info

Metar Taf Metar & Taf Last 4 Metars F.Rules Stats Wind Profile Meteogram Temp Stats Airport Information Weather charts Add Link Nearby VenuesMetar ALERT Operation Metar Decoded Social comments